CYNE

Norway House Airport

Norway House, Manitoba, Canada
METAR CYNE 092100Z AUTO 23008KT 9SM CLR M09/M11 A2999 RMK SLP179
Observed Flight Rules
Dec-9 @ 21:00 UTC (40 minutes ago) Visual Flight Rules
Wind Visibility Clouds
230° at 8 knots 9 miles
  • Clear skies
Temperatures Readings
Current -9°C / 16°F
Dewpoint -11°C / 12°F
Humidity 86%
Altimeter 29.99" Hg
Pressure 1017.9 hPa
Elevation 223
METAR CYNE 092100Z AUTO 23008KT 9SM CLR M09/M11 A2999 RMK SLP179
Observed Flight Rules
Dec-9 @ 21:00 UTC
(40 minutes ago)
VFR
Wind Visibility
230° at 8 knots 9 miles
Clouds
  • Clear skies
Temperature Dewpoint
-9°C / 16°F -11°C / 12°F
Humidity Altimeter Pressure
86% 29.99" Hg 1017.9 hPa